sensor_id;sensor_type;location;lat;lon;timestamp;P1;durP1;ratioP1;P2;durP2;ratioP2
69310;SDS011;56430;48.154;16.458;2023-02-15T00:01:28;26.73;;;8.65;;
69310;SDS011;56430;48.154;16.458;2023-02-15T00:03:54;19.33;;;7.47;;
69310;SDS011;56430;48.154;16.458;2023-02-15T00:06:22;20.67;;;8.23;;
69310;SDS011;56430;48.154;16.458;2023-02-15T00:08:49;23.73;;;8.43;;
69310;SDS011;56430;48.154;16.458;2023-02-15T00:11:17;25.23;;;9.18;;
69310;SDS011;56430;48.154;16.458;2023-02-15T00:14:05;21.55;;;8.35;;
69310;SDS011;56430;48.154;16.458;2023-02-15T00:16:33;22.23;;;9.07;;
69310;SDS011;56430;48.154;16.458;2023-02-15T00:19:00;20.90;;;7.90;;
69310;SDS011;56430;48.154;16.458;2023-02-15T00:21:28;22.60;;;8.73;;
69310;SDS011;56430;48.154;16.458;2023-02-15T00:23:55;21.80;;;8.10;;
69310;SDS011;56430;48.154;16.458;2023-02-15T00:26:23;22.60;;;8.52;;
69310;SDS011;56430;48.154;16.458;2023-02-15T00:28:50;19.75;;;8.32;;
69310;SDS011;56430;48.154;16.458;2023-02-15T00:31:16;24.33;;;9.77;;
69310;SDS011;56430;48.154;16.458;2023-02-15T00:33:45;23.10;;;8.98;;
69310;SDS011;56430;48.154;16.458;2023-02-15T00:36:12;22.80;;;9.00;;
69310;SDS011;56430;48.154;16.458;2023-02-15T00:38:39;22.98;;;8.68;;
69310;SDS011;56430;48.154;16.458;2023-02-15T00:41:06;25.38;;;8.43;;
69310;SDS011;56430;48.154;16.458;2023-02-15T00:43:33;20.83;;;8.83;;
69310;SDS011;56430;48.154;16.458;2023-02-15T00:46:01;23.05;;;8.38;;
69310;SDS011;56430;48.154;16.458;2023-02-15T00:48:28;24.40;;;8.48;;
69310;SDS011;56430;48.154;16.458;2023-02-15T00:50:57;23.55;;;8.82;;
69310;SDS011;56430;48.154;16.458;2023-02-15T00:53:24;22.30;;;8.70;;
69310;SDS011;56430;48.154;16.458;2023-02-15T00:55:51;19.90;;;8.17;;
69310;SDS011;56430;48.154;16.458;2023-02-15T00:58:19;25.50;;;8.73;;
69310;SDS011;56430;48.154;16.458;2023-02-15T01:00:46;22.20;;;8.63;;
69310;SDS011;56430;48.154;16.458;2023-02-15T01:03:13;20.38;;;8.43;;
69310;SDS011;56430;48.154;16.458;2023-02-15T01:05:41;21.40;;;8.48;;
69310;SDS011;56430;48.154;16.458;2023-02-15T01:08:09;24.17;;;8.53;;
69310;SDS011;56430;48.154;16.458;2023-02-15T01:10:36;23.50;;;8.35;;
69310;SDS011;56430;48.154;16.458;2023-02-15T01:13:03;21.58;;;7.90;;
69310;SDS011;56430;48.154;16.458;2023-02-15T01:15:30;21.90;;;7.90;;
69310;SDS011;56430;48.154;16.458;2023-02-15T01:17:57;24.17;;;8.25;;
69310;SDS011;56430;48.154;16.458;2023-02-15T01:20:25;23.57;;;8.93;;
69310;SDS011;56430;48.154;16.458;2023-02-15T01:22:54;25.27;;;8.48;;
69310;SDS011;56430;48.154;16.458;2023-02-15T01:25:25;17.23;;;7.20;;
69310;SDS011;56430;48.154;16.458;2023-02-15T01:27:52;22.33;;;8.10;;
69310;SDS011;56430;48.154;16.458;2023-02-15T01:30:18;22.75;;;8.82;;
69310;SDS011;56430;48.154;16.458;2023-02-15T01:32:45;22.73;;;8.73;;
69310;SDS011;56430;48.154;16.458;2023-02-15T01:35:12;22.95;;;9.10;;
69310;SDS011;56430;48.154;16.458;2023-02-15T01:37:39;21.73;;;8.73;;
69310;SDS011;56430;48.154;16.458;2023-02-15T01:40:07;23.65;;;8.20;;
69310;SDS011;56430;48.154;16.458;2023-02-15T01:42:36;24.42;;;8.98;;
69310;SDS011;56430;48.154;16.458;2023-02-15T01:45:03;25.67;;;9.00;;
69310;SDS011;56430;48.154;16.458;2023-02-15T01:47:32;25.05;;;8.25;;
69310;SDS011;56430;48.154;16.458;2023-02-15T01:50:03;19.73;;;7.32;;
69310;SDS011;56430;48.154;16.458;2023-02-15T01:52:31;20.25;;;8.40;;
69310;SDS011;56430;48.154;16.458;2023-02-15T01:55:00;20.88;;;7.82;;
69310;SDS011;56430;48.154;16.458;2023-02-15T01:57:27;22.23;;;8.00;;
69310;SDS011;56430;48.154;16.458;2023-02-15T01:59:56;18.60;;;7.22;;
69310;SDS011;56430;48.154;16.458;2023-02-15T02:02:24;22.77;;;7.97;;
69310;SDS011;56430;48.154;16.458;2023-02-15T02:04:52;22.88;;;8.48;;
69310;SDS011;56430;48.154;16.458;2023-02-15T02:07:22;23.50;;;8.88;;
69310;SDS011;56430;48.154;16.458;2023-02-15T02:09:50;25.73;;;8.63;;
69310;SDS011;56430;48.154;16.458;2023-02-15T02:12:17;24.70;;;8.25;;
69310;SDS011;56430;48.154;16.458;2023-02-15T02:14:44;32.10;;;9.00;;
69310;SDS011;56430;48.154;16.458;2023-02-15T02:17:15;25.67;;;9.35;;
69310;SDS011;56430;48.154;16.458;2023-02-15T02:19:51;22.88;;;8.73;;
69310;SDS011;56430;48.154;16.458;2023-02-15T02:22:28;22.03;;;8.07;;
69310;SDS011;56430;48.154;16.458;2023-02-15T02:27:46;21.55;;;7.65;;
69310;SDS011;56430;48.154;16.458;2023-02-15T02:35:51;25.80;;;7.90;;
69310;SDS011;56430;48.154;16.458;2023-02-15T02:38:21;23.40;;;8.40;;
69310;SDS011;56430;48.154;16.458;2023-02-15T02:40:52;24.38;;;8.38;;
69310;SDS011;56430;48.154;16.458;2023-02-15T02:43:25;25.40;;;8.88;;
69310;SDS011;56430;48.154;16.458;2023-02-15T02:45:55;20.98;;;8.00;;
69310;SDS011;56430;48.154;16.458;2023-02-15T02:48:24;20.57;;;8.10;;
69310;SDS011;56430;48.154;16.458;2023-02-15T02:50:53;23.80;;;8.30;;
69310;SDS011;56430;48.154;16.458;2023-02-15T02:53:20;23.38;;;7.88;;
69310;SDS011;56430;48.154;16.458;2023-02-15T02:55:48;22.42;;;8.45;;
69310;SDS011;56430;48.154;16.458;2023-02-15T02:58:17;21.85;;;8.20;;
69310;SDS011;56430;48.154;16.458;2023-02-15T03:00:48;23.63;;;9.00;;
69310;SDS011;56430;48.154;16.458;2023-02-15T03:03:20;27.23;;;10.00;;
69310;SDS011;56430;48.154;16.458;2023-02-15T03:05:50;20.52;;;7.47;;
69310;SDS011;56430;48.154;16.458;2023-02-15T03:08:21;27.80;;;9.80;;
69310;SDS011;56430;48.154;16.458;2023-02-15T03:10:54;28.83;;;9.27;;
69310;SDS011;56430;48.154;16.458;2023-02-15T03:13:22;25.63;;;9.57;;
69310;SDS011;56430;48.154;16.458;2023-02-15T03:15:49;29.88;;;10.38;;
69310;SDS011;56430;48.154;16.458;2023-02-15T03:18:35;24.42;;;9.13;;
69310;SDS011;56430;48.154;16.458;2023-02-15T03:21:03;28.45;;;10.35;;
69310;SDS011;56430;48.154;16.458;2023-02-15T03:23:32;28.15;;;9.70;;
69310;SDS011;56430;48.154;16.458;2023-02-15T03:26:00;26.27;;;9.27;;
69310;SDS011;56430;48.154;16.458;2023-02-15T03:28:28;27.98;;;10.15;;
69310;SDS011;56430;48.154;16.458;2023-02-15T03:30:58;25.73;;;9.13;;
69310;SDS011;56430;48.154;16.458;2023-02-15T03:33:26;26.75;;;9.52;;
69310;SDS011;56430;48.154;16.458;2023-02-15T03:35:54;25.30;;;9.15;;
69310;SDS011;56430;48.154;16.458;2023-02-15T03:38:26;28.20;;;9.47;;
69310;SDS011;56430;48.154;16.458;2023-02-15T03:40:57;21.67;;;8.57;;
69310;SDS011;56430;48.154;16.458;2023-02-15T03:43:40;29.60;;;10.10;;
69310;SDS011;56430;48.154;16.458;2023-02-15T03:46:09;26.77;;;9.10;;
69310;SDS011;56430;48.154;16.458;2023-02-15T03:48:39;26.73;;;9.88;;
69310;SDS011;56430;48.154;16.458;2023-02-15T03:51:08;24.50;;;9.33;;
69310;SDS011;56430;48.154;16.458;2023-02-15T03:53:53;28.92;;;10.50;;
69310;SDS011;56430;48.154;16.458;2023-02-15T03:56:22;26.67;;;9.63;;
69310;SDS011;56430;48.154;16.458;2023-02-15T03:58:49;30.27;;;10.88;;
69310;SDS011;56430;48.154;16.458;2023-02-15T04:01:34;27.45;;;10.07;;
69310;SDS011;56430;48.154;16.458;2023-02-15T04:04:19;29.60;;;10.37;;
69310;SDS011;56430;48.154;16.458;2023-02-15T04:06:49;27.35;;;10.13;;
69310;SDS011;56430;48.154;16.458;2023-02-15T04:09:16;28.17;;;10.23;;
69310;SDS011;56430;48.154;16.458;2023-02-15T04:12:01;25.80;;;9.90;;
69310;SDS011;56430;48.154;16.458;2023-02-15T04:14:28;30.90;;;9.55;;
69310;SDS011;56430;48.154;16.458;2023-02-15T04:17:13;28.67;;;9.97;;
69310;SDS011;56430;48.154;16.458;2023-02-15T04:19:39;26.75;;;9.82;;
69310;SDS011;56430;48.154;16.458;2023-02-15T04:22:23;30.08;;;11.30;;
69310;SDS011;56430;48.154;16.458;2023-02-15T04:25:08;27.02;;;9.07;;
69310;SDS011;56430;48.154;16.458;2023-02-15T04:27:40;28.55;;;10.10;;
69310;SDS011;56430;48.154;16.458;2023-02-15T04:30:08;30.50;;;11.03;;
69310;SDS011;56430;48.154;16.458;2023-02-15T04:32:35;29.65;;;10.85;;
69310;SDS011;56430;48.154;16.458;2023-02-15T04:35:03;27.27;;;10.35;;
69310;SDS011;56430;48.154;16.458;2023-02-15T04:37:30;29.83;;;10.57;;
69310;SDS011;56430;48.154;16.458;2023-02-15T04:39:57;29.40;;;9.93;;
69310;SDS011;56430;48.154;16.458;2023-02-15T04:42:24;26.77;;;9.53;;
69310;SDS011;56430;48.154;16.458;2023-02-15T04:44:53;28.08;;;10.52;;
69310;SDS011;56430;48.154;16.458;2023-02-15T04:47:20;27.05;;;10.05;;
69310;SDS011;56430;48.154;16.458;2023-02-15T04:49:47;26.95;;;9.63;;
69310;SDS011;56430;48.154;16.458;2023-02-15T04:52:14;29.13;;;10.35;;
69310;SDS011;56430;48.154;16.458;2023-02-15T04:54:42;25.83;;;9.73;;
69310;SDS011;56430;48.154;16.458;2023-02-15T04:57:09;28.20;;;10.65;;
69310;SDS011;56430;48.154;16.458;2023-02-15T04:59:36;28.92;;;9.88;;
69310;SDS011;56430;48.154;16.458;2023-02-15T05:02:04;27.63;;;9.77;;
69310;SDS011;56430;48.154;16.458;2023-02-15T05:04:31;28.92;;;10.43;;
69310;SDS011;56430;48.154;16.458;2023-02-15T05:06:58;31.50;;;9.77;;
69310;SDS011;56430;48.154;16.458;2023-02-15T05:09:25;28.38;;;11.05;;
69310;SDS011;56430;48.154;16.458;2023-02-15T05:11:52;26.98;;;9.20;;
69310;SDS011;56430;48.154;16.458;2023-02-15T05:14:19;30.77;;;10.35;;
69310;SDS011;56430;48.154;16.458;2023-02-15T05:16:46;28.08;;;10.40;;
69310;SDS011;56430;48.154;16.458;2023-02-15T05:19:14;28.57;;;9.80;;
69310;SDS011;56430;48.154;16.458;2023-02-15T05:21:41;33.47;;;11.18;;
69310;SDS011;56430;48.154;16.458;2023-02-15T05:24:08;29.58;;;10.07;;
69310;SDS011;56430;48.154;16.458;2023-02-15T05:26:48;25.42;;;10.10;;
69310;SDS011;56430;48.154;16.458;2023-02-15T05:29:33;28.30;;;9.98;;
69310;SDS011;56430;48.154;16.458;2023-02-15T05:32:00;32.50;;;11.30;;
69310;SDS011;56430;48.154;16.458;2023-02-15T05:34:29;29.40;;;10.98;;
69310;SDS011;56430;48.154;16.458;2023-02-15T05:36:56;28.65;;;10.98;;
69310;SDS011;56430;48.154;16.458;2023-02-15T05:39:23;31.85;;;10.75;;
69310;SDS011;56430;48.154;16.458;2023-02-15T05:41:49;27.15;;;9.30;;
69310;SDS011;56430;48.154;16.458;2023-02-15T05:44:16;27.50;;;10.27;;
69310;SDS011;56430;48.154;16.458;2023-02-15T05:46:43;27.30;;;9.65;;
69310;SDS011;56430;48.154;16.458;2023-02-15T05:49:10;30.08;;;10.07;;
69310;SDS011;56430;48.154;16.458;2023-02-15T05:51:41;27.20;;;10.02;;
69310;SDS011;56430;48.154;16.458;2023-02-15T05:54:08;27.58;;;10.43;;
69310;SDS011;56430;48.154;16.458;2023-02-15T05:56:35;27.93;;;9.20;;
69310;SDS011;56430;48.154;16.458;2023-02-15T05:59:01;29.30;;;9.25;;
69310;SDS011;56430;48.154;16.458;2023-02-15T06:01:28;29.55;;;10.73;;
69310;SDS011;56430;48.154;16.458;2023-02-15T06:03:55;34.40;;;11.05;;
69310;SDS011;56430;48.154;16.458;2023-02-15T06:06:22;34.35;;;11.10;;
69310;SDS011;56430;48.154;16.458;2023-02-15T06:08:50;30.83;;;11.20;;
69310;SDS011;56430;48.154;16.458;2023-02-15T06:11:17;36.53;;;11.32;;
69310;SDS011;56430;48.154;16.458;2023-02-15T06:13:44;34.22;;;10.82;;
69310;SDS011;56430;48.154;16.458;2023-02-15T06:16:11;35.47;;;11.60;;
69310;SDS011;56430;48.154;16.458;2023-02-15T06:18:38;29.45;;;9.98;;
69310;SDS011;56430;48.154;16.458;2023-02-15T06:21:05;28.33;;;10.00;;
69310;SDS011;56430;48.154;16.458;2023-02-15T06:23:32;33.13;;;10.63;;
69310;SDS011;56430;48.154;16.458;2023-02-15T06:26:00;29.27;;;11.00;;
69310;SDS011;56430;48.154;16.458;2023-02-15T06:28:27;32.67;;;11.13;;
69310;SDS011;56430;48.154;16.458;2023-02-15T06:30:54;29.73;;;9.75;;
69310;SDS011;56430;48.154;16.458;2023-02-15T06:33:21;27.47;;;10.63;;
69310;SDS011;56430;48.154;16.458;2023-02-15T06:35:48;34.40;;;10.68;;
69310;SDS011;56430;48.154;16.458;2023-02-15T06:38:15;29.67;;;11.15;;
69310;SDS011;56430;48.154;16.458;2023-02-15T06:40:43;32.83;;;10.65;;
69310;SDS011;56430;48.154;16.458;2023-02-15T06:43:11;29.13;;;10.23;;
69310;SDS011;56430;48.154;16.458;2023-02-15T06:45:38;25.37;;;9.40;;
69310;SDS011;56430;48.154;16.458;2023-02-15T06:48:05;27.33;;;9.52;;
69310;SDS011;56430;48.154;16.458;2023-02-15T06:50:33;25.13;;;8.68;;
69310;SDS011;56430;48.154;16.458;2023-02-15T06:53:00;25.48;;;9.32;;
69310;SDS011;56430;48.154;16.458;2023-02-15T06:55:27;30.15;;;10.52;;
69310;SDS011;56430;48.154;16.458;2023-02-15T06:57:54;26.53;;;10.03;;
69310;SDS011;56430;48.154;16.458;2023-02-15T07:00:22;26.40;;;10.10;;
69310;SDS011;56430;48.154;16.458;2023-02-15T07:02:52;29.77;;;10.55;;
69310;SDS011;56430;48.154;16.458;2023-02-15T07:05:20;24.70;;;8.05;;
69310;SDS011;56430;48.154;16.458;2023-02-15T07:07:47;29.67;;;9.05;;
69310;SDS011;56430;48.154;16.458;2023-02-15T07:10:14;23.53;;;8.40;;
69310;SDS011;56430;48.154;16.458;2023-02-15T07:12:41;26.45;;;9.07;;
69310;SDS011;56430;48.154;16.458;2023-02-15T07:15:08;25.00;;;8.32;;
69310;SDS011;56430;48.154;16.458;2023-02-15T07:17:36;32.67;;;9.18;;
69310;SDS011;56430;48.154;16.458;2023-02-15T07:20:04;28.00;;;8.23;;
69310;SDS011;56430;48.154;16.458;2023-02-15T07:22:31;25.97;;;9.27;;
69310;SDS011;56430;48.154;16.458;2023-02-15T07:24:59;29.52;;;9.15;;
69310;SDS011;56430;48.154;16.458;2023-02-15T07:27:26;30.67;;;10.18;;
69310;SDS011;56430;48.154;16.458;2023-02-15T07:29:53;33.28;;;10.07;;
69310;SDS011;56430;48.154;16.458;2023-02-15T07:32:20;27.38;;;9.68;;
69310;SDS011;56430;48.154;16.458;2023-02-15T07:34:48;28.50;;;10.13;;
69310;SDS011;56430;48.154;16.458;2023-02-15T07:37:15;29.80;;;9.57;;
69310;SDS011;56430;48.154;16.458;2023-02-15T07:39:42;25.95;;;9.48;;
69310;SDS011;56430;48.154;16.458;2023-02-15T07:42:09;22.70;;;8.90;;
69310;SDS011;56430;48.154;16.458;2023-02-15T07:44:36;26.95;;;9.35;;
69310;SDS011;56430;48.154;16.458;2023-02-15T07:47:02;26.50;;;9.10;;
69310;SDS011;56430;48.154;16.458;2023-02-15T07:49:29;28.38;;;8.27;;
69310;SDS011;56430;48.154;16.458;2023-02-15T07:51:58;27.63;;;8.25;;
69310;SDS011;56430;48.154;16.458;2023-02-15T07:54:26;30.55;;;9.32;;
69310;SDS011;56430;48.154;16.458;2023-02-15T07:56:56;25.30;;;8.32;;
69310;SDS011;56430;48.154;16.458;2023-02-15T07:59:23;27.33;;;8.80;;
69310;SDS011;56430;48.154;16.458;2023-02-15T08:01:50;29.23;;;10.05;;
69310;SDS011;56430;48.154;16.458;2023-02-15T08:04:18;27.90;;;9.10;;
69310;SDS011;56430;48.154;16.458;2023-02-15T08:06:45;28.08;;;9.13;;
69310;SDS011;56430;48.154;16.458;2023-02-15T08:09:13;23.48;;;8.95;;
69310;SDS011;56430;48.154;16.458;2023-02-15T08:11:40;28.43;;;9.80;;
69310;SDS011;56430;48.154;16.458;2023-02-15T08:14:08;23.40;;;7.57;;
69310;SDS011;56430;48.154;16.458;2023-02-15T08:16:36;21.63;;;8.23;;
69310;SDS011;56430;48.154;16.458;2023-02-15T08:19:04;27.88;;;8.70;;
69310;SDS011;56430;48.154;16.458;2023-02-15T08:21:32;21.92;;;8.77;;
69310;SDS011;56430;48.154;16.458;2023-02-15T08:23:59;23.73;;;8.87;;
69310;SDS011;56430;48.154;16.458;2023-02-15T08:26:28;27.98;;;9.35;;
69310;SDS011;56430;48.154;16.458;2023-02-15T08:28:55;24.90;;;8.52;;
69310;SDS011;56430;48.154;16.458;2023-02-15T08:31:22;24.08;;;9.57;;
69310;SDS011;56430;48.154;16.458;2023-02-15T08:33:51;28.80;;;9.20;;
69310;SDS011;56430;48.154;16.458;2023-02-15T08:36:18;30.73;;;9.50;;
69310;SDS011;56430;48.154;16.458;2023-02-15T08:38:46;23.30;;;8.98;;
69310;SDS011;56430;48.154;16.458;2023-02-15T08:41:14;25.60;;;8.75;;
69310;SDS011;56430;48.154;16.458;2023-02-15T08:43:42;23.20;;;8.93;;
69310;SDS011;56430;48.154;16.458;2023-02-15T08:46:10;23.70;;;8.52;;
69310;SDS011;56430;48.154;16.458;2023-02-15T08:48:37;19.67;;;7.67;;
69310;SDS011;56430;48.154;16.458;2023-02-15T08:51:05;25.73;;;8.95;;
69310;SDS011;56430;48.154;16.458;2023-02-15T08:53:33;23.10;;;8.45;;
69310;SDS011;56430;48.154;16.458;2023-02-15T08:56:00;23.45;;;8.70;;
69310;SDS011;56430;48.154;16.458;2023-02-15T08:58:27;25.65;;;9.35;;
69310;SDS011;56430;48.154;16.458;2023-02-15T09:00:56;28.87;;;9.83;;
69310;SDS011;56430;48.154;16.458;2023-02-15T09:03:23;26.52;;;9.57;;
69310;SDS011;56430;48.154;16.458;2023-02-15T09:05:49;27.85;;;8.18;;
69310;SDS011;56430;48.154;16.458;2023-02-15T09:08:17;23.90;;;9.55;;
69310;SDS011;56430;48.154;16.458;2023-02-15T09:10:44;22.08;;;9.55;;
69310;SDS011;56430;48.154;16.458;2023-02-15T09:13:10;21.53;;;7.73;;
69310;SDS011;56430;48.154;16.458;2023-02-15T09:15:38;27.17;;;9.32;;
69310;SDS011;56430;48.154;16.458;2023-02-15T09:18:07;24.55;;;8.65;;
69310;SDS011;56430;48.154;16.458;2023-02-15T09:20:35;25.77;;;9.20;;
69310;SDS011;56430;48.154;16.458;2023-02-15T09:23:02;27.27;;;9.43;;
69310;SDS011;56430;48.154;16.458;2023-02-15T09:25:29;29.53;;;10.57;;
69310;SDS011;56430;48.154;16.458;2023-02-15T09:27:55;27.38;;;9.70;;
69310;SDS011;56430;48.154;16.458;2023-02-15T09:30:22;24.10;;;9.70;;
69310;SDS011;56430;48.154;16.458;2023-02-15T09:32:49;22.85;;;8.73;;
69310;SDS011;56430;48.154;16.458;2023-02-15T09:35:18;23.58;;;8.43;;
69310;SDS011;56430;48.154;16.458;2023-02-15T09:37:45;22.53;;;7.93;;
69310;SDS011;56430;48.154;16.458;2023-02-15T09:40:12;24.08;;;9.70;;
69310;SDS011;56430;48.154;16.458;2023-02-15T09:43:01;28.23;;;9.40;;
69310;SDS011;56430;48.154;16.458;2023-02-15T09:45:32;20.55;;;8.30;;
69310;SDS011;56430;48.154;16.458;2023-02-15T09:48:12;23.60;;;8.25;;
69310;SDS011;56430;48.154;16.458;2023-02-15T09:50:47;21.00;;;7.93;;
69310;SDS011;56430;48.154;16.458;2023-02-15T09:53:24;39.65;;;9.27;;
69310;SDS011;56430;48.154;16.458;2023-02-15T09:55:55;24.00;;;8.45;;
69310;SDS011;56430;48.154;16.458;2023-02-15T09:58:27;25.90;;;8.80;;
69310;SDS011;56430;48.154;16.458;2023-02-15T10:00:59;19.60;;;7.30;;
69310;SDS011;56430;48.154;16.458;2023-02-15T10:03:41;24.93;;;9.30;;
69310;SDS011;56430;48.154;16.458;2023-02-15T10:06:18;23.38;;;8.88;;
69310;SDS011;56430;48.154;16.458;2023-02-15T10:08:57;22.77;;;8.98;;
69310;SDS011;56430;48.154;16.458;2023-02-15T10:11:31;23.38;;;8.90;;
69310;SDS011;56430;48.154;16.458;2023-02-15T10:14:12;22.88;;;8.65;;
69310;SDS011;56430;48.154;16.458;2023-02-15T10:16:41;26.00;;;8.47;;
69310;SDS011;56430;48.154;16.458;2023-02-15T10:19:11;22.52;;;8.68;;
69310;SDS011;56430;48.154;16.458;2023-02-15T10:21:43;23.88;;;9.30;;
69310;SDS011;56430;48.154;16.458;2023-02-15T10:24:19;25.70;;;9.43;;
69310;SDS011;56430;48.154;16.458;2023-02-15T10:26:50;23.30;;;8.75;;
69310;SDS011;56430;48.154;16.458;2023-02-15T10:29:24;21.07;;;8.20;;
69310;SDS011;56430;48.154;16.458;2023-02-15T10:31:57;25.63;;;9.48;;
69310;SDS011;56430;48.154;16.458;2023-02-15T10:34:27;28.58;;;9.48;;
69310;SDS011;56430;48.154;16.458;2023-02-15T10:37:11;22.55;;;8.18;;
69310;SDS011;56430;48.154;16.458;2023-02-15T10:39:46;24.15;;;8.75;;
69310;SDS011;56430;48.154;16.458;2023-02-15T10:42:17;25.37;;;9.40;;
69310;SDS011;56430;48.154;16.458;2023-02-15T10:44:51;25.27;;;9.52;;
69310;SDS011;56430;48.154;16.458;2023-02-15T10:47:23;25.50;;;10.05;;
69310;SDS011;56430;48.154;16.458;2023-02-15T10:49:58;27.40;;;9.60;;
69310;SDS011;56430;48.154;16.458;2023-02-15T10:52:35;24.20;;;9.23;;
69310;SDS011;56430;48.154;16.458;2023-02-15T10:55:06;29.73;;;10.30;;
69310;SDS011;56430;48.154;16.458;2023-02-15T10:57:38;25.83;;;9.48;;
69310;SDS011;56430;48.154;16.458;2023-02-15T11:00:09;26.67;;;9.32;;
69310;SDS011;56430;48.154;16.458;2023-02-15T11:03:01;25.38;;;9.15;;
69310;SDS011;56430;48.154;16.458;2023-02-15T11:05:32;26.52;;;10.05;;
69310;SDS011;56430;48.154;16.458;2023-02-15T11:08:03;28.33;;;9.83;;
69310;SDS011;56430;48.154;16.458;2023-02-15T11:10:34;25.88;;;9.13;;
69310;SDS011;56430;48.154;16.458;2023-02-15T11:13:04;26.00;;;9.93;;
69310;SDS011;56430;48.154;16.458;2023-02-15T11:15:35;26.58;;;9.70;;
69310;SDS011;56430;48.154;16.458;2023-02-15T11:18:06;26.75;;;9.52;;
69310;SDS011;56430;48.154;16.458;2023-02-15T11:20:37;24.20;;;9.13;;
69310;SDS011;56430;48.154;16.458;2023-02-15T11:23:10;25.80;;;9.38;;
69310;SDS011;56430;48.154;16.458;2023-02-15T11:25:40;23.20;;;9.15;;
69310;SDS011;56430;48.154;16.458;2023-02-15T11:28:10;26.52;;;9.70;;
69310;SDS011;56430;48.154;16.458;2023-02-15T11:30:40;28.52;;;9.18;;
69310;SDS011;56430;48.154;16.458;2023-02-15T11:33:12;23.00;;;8.90;;
69310;SDS011;56430;48.154;16.458;2023-02-15T11:35:46;26.27;;;9.18;;
69310;SDS011;56430;48.154;16.458;2023-02-15T11:38:17;28.10;;;10.63;;
69310;SDS011;56430;48.154;16.458;2023-02-15T11:40:46;28.48;;;10.23;;
69310;SDS011;56430;48.154;16.458;2023-02-15T11:43:16;22.65;;;8.02;;
69310;SDS011;56430;48.154;16.458;2023-02-15T11:45:44;22.93;;;8.17;;
69310;SDS011;56430;48.154;16.458;2023-02-15T11:48:12;24.25;;;9.90;;
69310;SDS011;56430;48.154;16.458;2023-02-15T11:50:39;25.23;;;9.63;;
69310;SDS011;56430;48.154;16.458;2023-02-15T11:53:09;26.45;;;10.02;;
69310;SDS011;56430;48.154;16.458;2023-02-15T11:55:38;28.33;;;9.98;;
69310;SDS011;56430;48.154;16.458;2023-02-15T11:58:08;26.00;;;9.47;;
69310;SDS011;56430;48.154;16.458;2023-02-15T12:00:38;29.58;;;9.98;;
69310;SDS011;56430;48.154;16.458;2023-02-15T12:03:12;30.27;;;11.00;;
69310;SDS011;56430;48.154;16.458;2023-02-15T12:05:42;25.45;;;9.90;;
69310;SDS011;56430;48.154;16.458;2023-02-15T12:08:12;28.92;;;10.35;;
69310;SDS011;56430;48.154;16.458;2023-02-15T12:10:42;30.27;;;10.23;;
69310;SDS011;56430;48.154;16.458;2023-02-15T12:13:14;25.17;;;9.40;;
69310;SDS011;56430;48.154;16.458;2023-02-15T12:15:42;26.60;;;9.77;;
69310;SDS011;56430;48.154;16.458;2023-02-15T12:18:16;25.90;;;10.40;;
69310;SDS011;56430;48.154;16.458;2023-02-15T12:20:45;24.23;;;9.88;;
69310;SDS011;56430;48.154;16.458;2023-02-15T12:23:13;26.50;;;10.03;;
69310;SDS011;56430;48.154;16.458;2023-02-15T12:25:42;27.52;;;10.05;;
69310;SDS011;56430;48.154;16.458;2023-02-15T12:28:20;25.67;;;9.73;;
69310;SDS011;56430;48.154;16.458;2023-02-15T12:30:49;26.10;;;9.23;;
69310;SDS011;56430;48.154;16.458;2023-02-15T12:33:21;27.33;;;9.68;;
69310;SDS011;56430;48.154;16.458;2023-02-15T12:35:54;31.13;;;10.37;;
69310;SDS011;56430;48.154;16.458;2023-02-15T12:38:24;30.13;;;10.18;;
69310;SDS011;56430;48.154;16.458;2023-02-15T12:41:01;28.38;;;10.25;;
69310;SDS011;56430;48.154;16.458;2023-02-15T12:43:31;27.08;;;10.55;;
69310;SDS011;56430;48.154;16.458;2023-02-15T12:46:14;27.63;;;9.85;;
69310;SDS011;56430;48.154;16.458;2023-02-15T12:48:46;29.53;;;10.27;;
69310;SDS011;56430;48.154;16.458;2023-02-15T12:51:13;30.10;;;10.13;;
69310;SDS011;56430;48.154;16.458;2023-02-15T12:53:43;26.27;;;9.70;;
69310;SDS011;56430;48.154;16.458;2023-02-15T12:56:12;26.13;;;10.38;;
69310;SDS011;56430;48.154;16.458;2023-02-15T12:58:39;24.65;;;9.68;;
69310;SDS011;56430;48.154;16.458;2023-02-15T13:01:11;23.87;;;8.63;;
69310;SDS011;56430;48.154;16.458;2023-02-15T13:03:40;25.17;;;9.90;;
69310;SDS011;56430;48.154;16.458;2023-02-15T13:06:16;24.58;;;9.50;;
69310;SDS011;56430;48.154;16.458;2023-02-15T13:08:45;23.67;;;9.52;;
69310;SDS011;56430;48.154;16.458;2023-02-15T13:11:15;23.83;;;9.77;;
69310;SDS011;56430;48.154;16.458;2023-02-15T13:13:47;25.43;;;9.87;;
69310;SDS011;56430;48.154;16.458;2023-02-15T13:16:17;24.42;;;9.27;;
69310;SDS011;56430;48.154;16.458;2023-02-15T13:18:46;22.58;;;9.13;;
69310;SDS011;56430;48.154;16.458;2023-02-15T13:21:15;23.35;;;9.38;;
69310;SDS011;56430;48.154;16.458;2023-02-15T13:23:44;23.98;;;9.50;;
69310;SDS011;56430;48.154;16.458;2023-02-15T13:26:16;24.37;;;8.83;;
69310;SDS011;56430;48.154;16.458;2023-02-15T13:28:46;27.13;;;10.45;;
69310;SDS011;56430;48.154;16.458;2023-02-15T13:31:14;27.90;;;10.60;;
69310;SDS011;56430;48.154;16.458;2023-02-15T13:33:42;27.42;;;10.18;;
69310;SDS011;56430;48.154;16.458;2023-02-15T13:36:12;26.38;;;10.40;;
69310;SDS011;56430;48.154;16.458;2023-02-15T13:38:45;26.93;;;10.03;;
69310;SDS011;56430;48.154;16.458;2023-02-15T13:41:16;25.45;;;9.63;;
69310;SDS011;56430;48.154;16.458;2023-02-15T13:43:47;26.08;;;10.57;;
69310;SDS011;56430;48.154;16.458;2023-02-15T13:46:23;28.17;;;10.55;;
69310;SDS011;56430;48.154;16.458;2023-02-15T13:48:56;28.05;;;10.40;;
69310;SDS011;56430;48.154;16.458;2023-02-15T13:51:27;23.47;;;9.00;;
69310;SDS011;56430;48.154;16.458;2023-02-15T13:54:03;26.10;;;10.18;;
69310;SDS011;56430;48.154;16.458;2023-02-15T13:56:40;25.98;;;10.13;;
69310;SDS011;56430;48.154;16.458;2023-02-15T13:59:17;27.65;;;11.45;;
69310;SDS011;56430;48.154;16.458;2023-02-15T14:01:49;23.98;;;10.85;;
69310;SDS011;56430;48.154;16.458;2023-02-15T14:07:15;29.65;;;10.50;;
69310;SDS011;56430;48.154;16.458;2023-02-15T14:09:47;25.70;;;10.45;;
69310;SDS011;56430;48.154;16.458;2023-02-15T14:12:26;28.80;;;10.40;;
69310;SDS011;56430;48.154;16.458;2023-02-15T14:15:08;28.63;;;10.70;;
69310;SDS011;56430;48.154;16.458;2023-02-15T14:17:43;26.97;;;10.80;;
69310;SDS011;56430;48.154;16.458;2023-02-15T14:20:15;27.52;;;11.27;;
69310;SDS011;56430;48.154;16.458;2023-02-15T14:22:45;36.88;;;12.27;;
69310;SDS011;56430;48.154;16.458;2023-02-15T14:25:17;29.63;;;10.45;;
69310;SDS011;56430;48.154;16.458;2023-02-15T14:27:51;27.45;;;10.05;;
69310;SDS011;56430;48.154;16.458;2023-02-15T14:30:22;30.13;;;11.33;;
69310;SDS011;56430;48.154;16.458;2023-02-15T14:32:51;28.85;;;11.00;;
69310;SDS011;56430;48.154;16.458;2023-02-15T14:35:20;31.13;;;11.02;;
69310;SDS011;56430;48.154;16.458;2023-02-15T14:37:49;34.33;;;11.50;;
69310;SDS011;56430;48.154;16.458;2023-02-15T14:40:33;31.08;;;12.27;;
69310;SDS011;56430;48.154;16.458;2023-02-15T14:43:22;28.33;;;10.73;;
69310;SDS011;56430;48.154;16.458;2023-02-15T14:45:52;28.05;;;10.40;;